Time;durP1;ratioP1;P1;durP2;ratioP2;P2;SDS_P1;SDS_P2;PMS_P1;PMS_P2;Temp;Humidity;BMP_temperature;BMP_pressure;BME280_temperature;BME280_humidity;BME280_pressure;Samples;Min_cycle;Max_cycle;Signal;HPM_P1;HPM_P2
2022/03/10 00:01:13;;;;;;;30.92;12.38;;;;;;;-141.50;100.00;63355.56;5010090;28;20076;-79
2022/03/10 00:03:40;;;;;;;26.38;11.63;;;;;;;-141.50;100.00;63355.56;5011881;28;20425;-80
2022/03/10 00:06:06;;;;;;;27.55;12.35;;;;;;;-141.50;100.00;63355.56;5010931;28;20675;-78
2022/03/10 00:08:33;;;;;;;27.40;11.65;;;;;;;-141.50;100.00;63355.56;5011434;28;20050;-80
2022/03/10 00:10:59;;;;;;;28.70;12.35;;;;;;;-141.50;100.00;63355.56;5009923;28;20054;-79
2022/03/10 00:13:29;;;;;;;32.80;13.05;;;;;;;-141.50;100.00;63355.56;5011264;28;20054;-78
2022/03/10 00:15:57;;;;;;;29.95;13.13;;;;;;;-141.50;100.00;63355.56;5011855;28;20054;-80
2022/03/10 00:18:25;;;;;;;27.23;12.95;;;;;;;-141.50;100.00;63355.56;5007460;28;20085;-82
2022/03/10 00:20:52;;;;;;;27.20;12.95;;;;;;;-141.50;100.00;63355.56;5009603;28;20050;-79
2022/03/10 00:23:18;;;;;;;24.35;12.60;;;;;;;-141.50;100.00;63355.56;5011106;28;20096;-78
2022/03/10 00:25:45;;;;;;;26.83;12.25;;;;;;;-141.50;100.00;63355.56;5007433;28;20089;-79
2022/03/10 00:28:11;;;;;;;23.65;12.07;;;;;;;-141.50;100.00;63355.56;5020825;28;20076;-78
2022/03/10 00:30:38;;;;;;;25.92;11.50;;;;;;;-141.50;100.00;63355.56;5029186;28;20053;-79
2022/03/10 00:33:04;;;;;;;23.00;11.52;;;;;;;-141.50;100.00;63355.56;5029100;28;20065;-79
2022/03/10 00:35:30;;;;;;;24.13;11.32;;;;;;;-141.50;100.00;63355.56;5028900;28;20108;-78
2022/03/10 00:37:58;;;;;;;24.00;11.27;;;;;;;-141.50;100.00;63355.56;5019198;28;20058;-78
2022/03/10 00:40:25;;;;;;;24.70;10.95;;;;;;;-141.50;100.00;63355.56;5010459;28;20053;-78
2022/03/10 00:42:52;;;;;;;24.15;11.55;;;;;;;-141.50;100.00;63355.56;5012067;28;20109;-79
2022/03/10 00:45:19;;;;;;;24.95;11.30;;;;;;;-141.50;100.00;63355.56;5010317;28;20056;-79
2022/03/10 00:47:46;;;;;;;27.92;11.00;;;;;;;-141.50;100.00;63355.56;5013228;28;20058;-79
2022/03/10 00:50:13;;;;;;;23.27;11.02;;;;;;;-141.50;100.00;63355.56;5011157;28;20447;-78
2022/03/10 00:52:44;;;;;;;26.33;12.05;;;;;;;-141.50;100.00;63355.56;5011619;28;20078;-79
2022/03/10 00:55:13;;;;;;;27.02;11.75;;;;;;;-141.50;100.00;63355.56;5010135;28;20049;-79
2022/03/10 00:57:39;;;;;;;24.60;11.07;;;;;;;-141.50;100.00;63355.56;5009665;28;20088;-79
2022/03/10 01:00:09;;;;;;;25.77;11.52;;;;;;;-141.50;100.00;63355.56;5009174;28;20136;-78
2022/03/10 01:02:37;;;;;;;25.98;12.13;;;;;;;-141.50;100.00;63355.56;5012071;28;20085;-79
2022/03/10 01:05:05;;;;;;;28.60;12.43;;;;;;;-141.50;100.00;63355.56;5013707;28;20309;-78
2022/03/10 01:07:32;;;;;;;25.08;11.68;;;;;;;-141.50;100.00;63355.56;5012600;28;20072;-78
2022/03/10 01:10:04;;;;;;;26.35;11.93;;;;;;;-141.50;100.00;63355.56;5011540;28;20057;-78
2022/03/10 01:12:31;;;;;;;24.75;11.23;;;;;;;-141.50;100.00;63355.56;5021839;28;20086;-77
2022/03/10 01:14:58;;;;;;;27.98;10.05;;;;;;;-141.50;100.00;63355.56;5021600;28;20053;-78
2022/03/10 01:17:24;;;;;;;26.10;12.13;;;;;;;-141.50;100.00;63355.56;5025573;28;20049;-78
2022/03/10 01:19:51;;;;;;;29.60;11.05;;;;;;;-141.50;100.00;63355.56;5008332;28;20115;-78
2022/03/10 01:22:18;;;;;;;28.27;11.50;;;;;;;-141.50;100.00;63355.56;5009546;28;20058;-79
2022/03/10 01:24:46;;;;;;;24.23;11.55;;;;;;;-141.50;100.00;63355.56;5008528;28;20053;-79
2022/03/10 01:27:15;;;;;;;25.23;11.88;;;;;;;-141.50;100.00;63355.56;5009493;28;20490;-76
2022/03/10 01:29:41;;;;;;;22.73;10.85;;;;;;;-141.50;100.00;63355.56;5008166;28;20139;-78
2022/03/10 01:32:08;;;;;;;26.10;11.80;;;;;;;-141.50;100.00;63355.56;5007026;28;20478;-78
2022/03/10 01:34:35;;;;;;;27.20;11.20;;;;;;;-141.50;100.00;63355.56;5007704;28;20398;-77
2022/03/10 01:37:02;;;;;;;27.33;11.57;;;;;;;-141.50;100.00;63355.56;5010074;28;20069;-78
2022/03/10 01:39:32;;;;;;;23.45;11.27;;;;;;;-141.50;100.00;63355.56;5008468;28;20394;-77
2022/03/10 01:42:00;;;;;;;24.35;11.30;;;;;;;-141.50;100.00;63355.56;5007832;28;20069;-80
2022/03/10 01:44:28;;;;;;;25.45;11.18;;;;;;;-141.50;100.00;63355.56;5010899;28;20069;-77
2022/03/10 01:46:55;;;;;;;24.98;11.48;;;;;;;-141.50;100.00;63355.56;5010169;28;20537;-80
2022/03/10 01:49:21;;;;;;;25.42;10.02;;;;;;;-141.50;100.00;63355.56;5010529;28;20636;-76
2022/03/10 01:51:51;;;;;;;27.15;11.15;;;;;;;-141.50;100.00;63355.56;5010624;28;20077;-78
2022/03/10 01:54:18;;;;;;;24.67;11.25;;;;;;;-141.50;100.00;63355.56;5010174;28;20498;-79
2022/03/10 01:56:44;;;;;;;24.38;11.20;;;;;;;-141.50;100.00;63355.56;5001348;28;20607;-78
2022/03/10 01:59:12;;;;;;;24.83;10.88;;;;;;;-141.50;100.00;63355.56;4992712;28;20050;-79
2022/03/10 02:01:39;;;;;;;25.17;11.50;;;;;;;-141.50;100.00;63355.56;5010981;28;20208;-78
2022/03/10 02:04:05;;;;;;;28.55;11.48;;;;;;;-141.50;100.00;63355.56;5009100;28;20046;-79
2022/03/10 02:06:32;;;;;;;23.88;11.10;;;;;;;-141.50;100.00;63355.56;5010830;28;20077;-77
2022/03/10 02:11:44;;;;;;;17.98;8.82;;;;;;;-141.50;100.00;63355.56;5009768;28;20108;-79
2022/03/10 02:19:42;;;;;;;29.67;12.88;;;;;;;-141.50;100.00;63355.56;5009564;28;20050;-77
2022/03/10 02:22:13;;;;;;;33.55;11.68;;;;;;;-141.50;100.00;63355.56;5009704;28;20096;-78
2022/03/10 02:24:43;;;;;;;25.75;11.95;;;;;;;-141.50;100.00;63355.56;5011120;28;20441;-80
2022/03/10 02:27:19;;;;;;;27.30;11.63;;;;;;;-141.50;100.00;63355.56;5012037;28;20108;-80
2022/03/10 02:29:50;;;;;;;30.85;12.32;;;;;;;-141.50;100.00;63355.56;5012834;28;20467;-80
2022/03/10 02:32:18;;;;;;;26.48;11.98;;;;;;;-141.50;100.00;63355.56;5013371;28;20054;-78
2022/03/10 02:34:45;;;;;;;22.02;11.43;;;;;;;-141.50;100.00;63355.56;5013886;28;20042;-79
2022/03/10 02:37:13;;;;;;;29.48;12.02;;;;;;;-141.50;100.00;63355.56;5013212;28;20049;-78
2022/03/10 02:39:41;;;;;;;25.00;11.85;;;;;;;-141.50;100.00;63355.56;5011390;28;20572;-79
2022/03/10 02:42:09;;;;;;;24.20;11.10;;;;;;;-141.50;100.00;63355.56;5011131;28;20124;-78
2022/03/10 02:44:44;;;;;;;28.27;11.25;;;;;;;-141.50;100.00;63355.56;5011498;28;20046;-78
2022/03/10 02:47:13;;;;;;;28.35;11.68;;;;;;;-141.50;100.00;63355.56;5012067;28;20053;-78
2022/03/10 02:49:40;;;;;;;23.17;11.02;;;;;;;-141.50;100.00;63355.56;5011885;28;20060;-79
2022/03/10 02:52:08;;;;;;;24.85;11.35;;;;;;;-141.50;100.00;63355.56;5012488;28;20057;-77
2022/03/10 02:54:42;;;;;;;23.67;11.25;;;;;;;-141.50;100.00;63355.56;5013932;28;20100;-80
2022/03/10 02:57:09;;;;;;;25.40;11.05;;;;;;;-141.50;100.00;63355.56;5000609;28;20433;-79
2022/03/10 02:59:35;;;;;;;25.55;11.55;;;;;;;-141.50;100.00;63355.56;5016700;28;20065;-77
2022/03/10 03:02:03;;;;;;;20.75;10.57;;;;;;;-141.50;100.00;63355.56;5011690;28;20481;-78
2022/03/10 03:04:30;;;;;;;26.27;11.73;;;;;;;-141.50;100.00;63355.56;5013727;28;20053;-78
2022/03/10 03:06:56;;;;;;;25.92;11.32;;;;;;;-141.50;100.00;63355.56;4994076;28;20050;-77
2022/03/10 03:09:23;;;;;;;25.88;11.10;;;;;;;-141.50;100.00;63355.56;4992156;28;20057;-80
2022/03/10 03:11:50;;;;;;;28.25;10.57;;;;;;;-141.50;100.00;63355.56;5010121;28;20061;-78
2022/03/10 03:14:16;;;;;;;24.13;11.93;;;;;;;-141.50;100.00;63355.56;5011198;28;20054;-78
2022/03/10 03:16:43;;;;;;;25.42;10.55;;;;;;;-141.50;100.00;63355.56;5012563;28;20157;-79
2022/03/10 03:19:10;;;;;;;22.80;11.10;;;;;;;-141.50;100.00;63355.56;4992201;28;20221;-80
2022/03/10 03:21:37;;;;;;;28.10;12.43;;;;;;;-141.50;100.00;63355.56;5010369;28;20144;-78
2022/03/10 03:24:04;;;;;;;32.40;11.98;;;;;;;-141.50;100.00;63355.56;5010995;28;20049;-80
2022/03/10 03:26:30;;;;;;;26.10;11.80;;;;;;;-141.50;100.00;63355.56;5011911;28;20046;-78
2022/03/10 03:28:57;;;;;;;25.35;11.75;;;;;;;-141.50;100.00;63355.56;5012381;28;20569;-79
2022/03/10 03:31:23;;;;;;;29.23;11.93;;;;;;;-141.50;100.00;63355.56;5012374;28;20112;-78
2022/03/10 03:33:50;;;;;;;27.77;12.05;;;;;;;-141.50;100.00;63355.56;5013984;28;20500;-79
2022/03/10 03:36:17;;;;;;;24.60;11.52;;;;;;;-141.50;100.00;63355.56;5013126;28;20050;-78
2022/03/10 03:38:43;;;;;;;28.15;11.23;;;;;;;-141.50;100.00;63355.56;5016296;28;20068;-78
2022/03/10 03:41:10;;;;;;;24.33;11.55;;;;;;;-141.50;100.00;63355.56;5012377;28;20057;-77
2022/03/10 03:43:37;;;;;;;25.77;11.23;;;;;;;-141.50;100.00;63355.56;5010712;28;20053;-77
2022/03/10 03:46:03;;;;;;;26.92;11.95;;;;;;;-141.50;100.00;63355.56;5010621;28;20100;-79
2022/03/10 03:48:30;;;;;;;26.00;11.40;;;;;;;-141.50;100.00;63355.56;5011401;28;20136;-77
2022/03/10 03:50:56;;;;;;;30.77;12.18;;;;;;;-141.50;100.00;63355.56;5009412;28;20108;-77
2022/03/10 03:53:23;;;;;;;25.02;10.55;;;;;;;-141.50;100.00;63355.56;5010114;28;20077;-79
2022/03/10 03:55:49;;;;;;;26.10;11.50;;;;;;;-141.50;100.00;63355.56;5007849;28;20084;-80
2022/03/10 03:58:16;;;;;;;25.85;11.85;;;;;;;-141.50;100.00;63355.56;4997337;28;20042;-78
2022/03/10 04:00:42;;;;;;;23.90;11.20;;;;;;;-141.50;100.00;63355.56;4989869;28;20058;-79
2022/03/10 04:03:11;;;;;;;27.38;11.45;;;;;;;-141.50;100.00;63355.56;4991011;28;20149;-76
2022/03/10 04:05:39;;;;;;;26.60;10.65;;;;;;;-141.50;100.00;63355.56;4990258;28;20097;-80
2022/03/10 04:08:07;;;;;;;26.33;11.43;;;;;;;-141.50;100.00;63355.56;4991401;28;20471;-77
2022/03/10 04:10:34;;;;;;;34.10;12.77;;;;;;;-141.50;100.00;63355.56;4987914;28;20104;-78
2022/03/10 04:13:01;;;;;;;28.42;11.43;;;;;;;-141.50;100.00;63355.56;4989923;28;20054;-79
2022/03/10 04:15:27;;;;;;;26.77;10.68;;;;;;;-141.50;100.00;63355.56;4989371;28;20727;-79
2022/03/10 04:17:54;;;;;;;25.08;10.85;;;;;;;-141.50;100.00;63355.56;4991426;28;20419;-78
2022/03/10 04:20:21;;;;;;;28.58;11.77;;;;;;;-141.50;100.00;63355.56;4988315;28;20054;-76
2022/03/10 04:22:47;;;;;;;28.65;11.77;;;;;;;-141.50;100.00;63355.56;4991575;28;20788;-80
2022/03/10 04:25:14;;;;;;;29.08;12.23;;;;;;;-141.50;100.00;63355.56;4991304;28;20073;-79
2022/03/10 04:27:40;;;;;;;31.88;13.02;;;;;;;-141.50;100.00;63355.56;4992791;28;20050;-78
2022/03/10 04:30:07;;;;;;;28.33;11.80;;;;;;;-141.50;100.00;63355.56;4992142;28;20398;-77
2022/03/10 04:32:46;;;;;;;28.75;12.55;;;;;;;-141.50;100.00;63355.56;4990290;28;20403;-79
2022/03/10 04:35:15;;;;;;;26.05;10.77;;;;;;;-141.50;100.00;63355.56;4972408;28;20105;-77
2022/03/10 04:37:42;;;;;;;24.98;11.45;;;;;;;-141.50;100.00;63355.56;5000611;28;20073;-78
2022/03/10 04:40:09;;;;;;;27.75;12.02;;;;;;;-141.50;100.00;63355.56;5003842;28;20124;-78
2022/03/10 04:42:37;;;;;;;29.27;11.55;;;;;;;-141.50;100.00;63355.56;5007109;28;20042;-77
2022/03/10 04:45:06;;;;;;;51.00;16.15;;;;;;;-141.50;100.00;63355.56;4992682;28;20069;-77
2022/03/10 04:47:34;;;;;;;40.58;13.45;;;;;;;-141.50;100.00;63355.56;4991930;28;20046;-77
2022/03/10 04:50:03;;;;;;;56.63;18.40;;;;;;;-141.50;100.00;63355.56;4990458;28;20050;-77
2022/03/10 04:52:29;;;;;;;52.17;18.50;;;;;;;-141.50;100.00;63355.56;4990220;28;20117;-77
2022/03/10 04:54:59;;;;;;;55.83;17.88;;;;;;;-141.50;100.00;63355.56;4971285;28;20078;-77
2022/03/10 04:57:28;;;;;;;53.97;19.23;;;;;;;-141.50;100.00;63355.56;4989817;28;20140;-78
2022/03/10 04:59:54;;;;;;;69.65;20.10;;;;;;;-141.50;100.00;63355.56;4992211;28;20053;-79
2022/03/10 05:02:21;;;;;;;60.88;20.48;;;;;;;-141.50;100.00;63355.56;4991539;28;20050;-78
2022/03/10 05:04:48;;;;;;;57.53;19.20;;;;;;;-141.50;100.00;63355.56;4973307;28;20418;-78
2022/03/10 05:07:14;;;;;;;53.72;20.17;;;;;;;-141.50;100.00;63355.56;4990365;28;20046;-76
2022/03/10 05:09:41;;;;;;;61.85;20.13;;;;;;;-141.50;100.00;63355.56;4988894;28;20477;-77
2022/03/10 05:12:07;;;;;;;56.83;19.90;;;;;;;-141.50;100.00;63355.56;4988918;28;20066;-77
2022/03/10 05:14:34;;;;;;;58.47;20.00;;;;;;;-141.50;100.00;63355.56;4988662;28;20089;-77
2022/03/10 05:17:02;;;;;;;64.97;20.77;;;;;;;-141.50;100.00;63355.56;4989282;28;20079;-76
2022/03/10 05:19:28;;;;;;;59.60;19.05;;;;;;;-141.50;100.00;63355.56;4992111;28;20054;-79
2022/03/10 05:21:55;;;;;;;64.82;21.20;;;;;;;-141.50;100.00;63355.56;4995980;28;20117;-79
2022/03/10 05:24:21;;;;;;;63.63;21.60;;;;;;;-141.50;100.00;63355.56;4997827;28;20050;-79
2022/03/10 05:26:48;;;;;;;59.42;20.67;;;;;;;-141.50;100.00;63355.56;5001954;28;20494;-77
2022/03/10 05:29:15;;;;;;;61.67;20.70;;;;;;;-141.50;100.00;63355.56;5004254;28;20054;-77
2022/03/10 05:31:41;;;;;;;68.35;23.55;;;;;;;-141.50;100.00;63355.56;5008240;28;20454;-79
2022/03/10 05:34:08;;;;;;;69.25;22.05;;;;;;;-141.50;100.00;63355.56;5009353;28;20089;-77
2022/03/10 05:36:34;;;;;;;64.65;20.70;;;;;;;-141.50;100.00;63355.56;5010007;28;20076;-77
2022/03/10 05:39:01;;;;;;;63.20;20.83;;;;;;;-141.50;100.00;63355.56;5010608;28;20061;-79
2022/03/10 05:41:31;;;;;;;60.50;19.70;;;;;;;-141.50;100.00;63355.56;5007755;28;20108;-79
2022/03/10 05:43:58;;;;;;;94.20;30.75;;;;;;;-141.50;100.00;63355.56;5009995;28;20085;-78
2022/03/10 05:46:24;;;;;;;66.55;22.65;;;;;;;-141.50;100.00;63355.56;4995116;28;20459;-79
2022/03/10 05:48:51;;;;;;;81.07;26.02;;;;;;;-141.50;100.00;63355.56;5004578;28;20050;-78
2022/03/10 05:51:17;;;;;;;92.68;29.30;;;;;;;-141.50;100.00;63355.56;5007540;28;20054;-80
2022/03/10 05:53:44;;;;;;;96.70;31.25;;;;;;;-141.50;100.00;63355.56;5010258;28;20053;-79
2022/03/10 05:56:11;;;;;;;97.18;30.48;;;;;;;-141.50;100.00;63355.56;5017766;28;20041;-78
2022/03/10 05:58:37;;;;;;;75.53;24.77;;;;;;;-141.50;100.00;63355.56;5032028;28;20448;-78
2022/03/10 06:01:03;;;;;;;54.17;21.08;;;;;;;-141.50;100.00;63355.56;5016764;28;20124;-78
2022/03/10 06:03:30;;;;;;;52.53;18.77;;;;;;;-141.50;100.00;63355.56;5026401;28;20049;-77
2022/03/10 06:05:57;;;;;;;50.63;18.75;;;;;;;-141.50;100.00;63355.56;5030435;28;20473;-78
2022/03/10 06:08:25;;;;;;;53.35;19.48;;;;;;;-141.50;100.00;63355.56;5033133;28;20464;-78
2022/03/10 06:10:51;;;;;;;50.72;19.25;;;;;;;-141.50;100.00;63355.56;5034695;28;20241;-81
2022/03/10 06:13:18;;;;;;;58.30;20.42;;;;;;;-141.50;100.00;63355.56;5043609;28;20133;-79
2022/03/10 06:15:44;;;;;;;50.22;19.05;;;;;;;-141.50;100.00;63355.56;5036539;28;20434;-78
2022/03/10 06:18:12;;;;;;;54.40;19.48;;;;;;;-141.50;100.00;63355.56;5024056;28;20070;-79
2022/03/10 06:20:38;;;;;;;45.17;18.02;;;;;;;-141.50;100.00;63355.56;5019885;28;20061;-77
2022/03/10 06:23:06;;;;;;;49.72;18.38;;;;;;;-141.50;100.00;63355.56;5011077;28;20121;-79
2022/03/10 06:25:32;;;;;;;78.90;23.35;;;;;;;-141.50;100.00;63355.56;5013674;28;20046;-80
2022/03/10 06:27:59;;;;;;;105.90;29.77;;;;;;;-141.50;100.00;63355.56;5014439;28;20049;-78
2022/03/10 06:30:26;;;;;;;72.38;23.13;;;;;;;-141.50;100.00;63355.56;5013508;28;20046;-79
2022/03/10 06:32:52;;;;;;;87.25;26.17;;;;;;;-141.50;100.00;63355.56;5013526;28;20112;-79
2022/03/10 06:35:19;;;;;;;64.38;20.60;;;;;;;-141.50;100.00;63355.56;5016025;28;20054;-80
2022/03/10 06:37:46;;;;;;;63.28;21.92;;;;;;;-141.50;100.00;63355.56;5014053;28;20050;-77
2022/03/10 06:47:40;;;;;;;68.07;22.08;;;;;;;-141.50;100.00;63355.56;1152843;23;20809;-85
2022/03/10 06:52:34;;;;;;;53.97;19.85;;;;;;;-141.50;100.00;63355.56;5008955;28;20481;-78
2022/03/10 06:55:01;;;;;;;51.92;18.70;;;;;;;-141.50;100.00;63355.56;5012399;28;20054;-78
2022/03/10 06:57:28;;;;;;;41.20;17.42;;;;;;;-141.50;100.00;63355.56;5015315;28;20085;-77
2022/03/10 06:59:54;;;;;;;48.13;18.90;;;;;;;-141.50;100.00;63355.56;5010945;28;20049;-79
2022/03/10 07:02:21;;;;;;;45.95;17.65;;;;;;;-141.50;100.00;63355.56;5014360;28;20088;-78
2022/03/10 07:04:47;;;;;;;43.60;17.17;;;;;;;-141.50;100.00;63355.56;5015005;28;20132;-77
2022/03/10 07:07:14;;;;;;;45.53;17.95;;;;;;;-141.50;100.00;63355.56;5010485;28;20042;-77
2022/03/10 07:09:41;;;;;;;42.33;16.23;;;;;;;-141.50;100.00;63355.56;5010933;28;20425;-78
2022/03/10 07:12:09;;;;;;;39.08;15.05;;;;;;;-141.50;100.00;63355.56;5014050;28;20108;-77
2022/03/10 07:14:36;;;;;;;38.30;14.90;;;;;;;-141.50;100.00;63355.56;5013655;28;20547;-78
2022/03/10 07:17:03;;;;;;;47.60;18.00;;;;;;;-141.50;100.00;63355.56;5014556;28;20054;-77
2022/03/10 07:19:30;;;;;;;53.13;18.98;;;;;;;-141.50;100.00;63355.56;5014151;28;20434;-78
2022/03/10 07:21:56;;;;;;;48.05;18.45;;;;;;;-141.50;100.00;63355.56;5022571;28;20042;-78
2022/03/10 07:24:23;;;;;;;39.25;15.27;;;;;;;-141.50;100.00;63355.56;5034206;28;20041;-78
2022/03/10 07:26:55;;;;;;;30.52;12.50;;;;;;;-141.50;100.00;63355.56;5033588;28;20034;-78
2022/03/10 07:29:21;;;;;;;26.35;11.23;;;;;;;-141.50;100.00;63355.56;5016805;28;20107;-78
2022/03/10 07:31:48;;;;;;;25.15;10.32;;;;;;;-141.50;100.00;63355.56;5014120;28;20123;-78
2022/03/10 07:34:14;;;;;;;27.90;11.93;;;;;;;-141.50;100.00;63355.56;5010451;28;20096;-78
2022/03/10 07:36:42;;;;;;;20.40;9.93;;;;;;;-141.50;100.00;63355.56;5010565;28;20045;-78
2022/03/10 07:39:09;;;;;;;18.48;9.57;;;;;;;-141.50;100.00;63355.56;5008154;28;20077;-77
2022/03/10 07:41:37;;;;;;;20.00;9.55;;;;;;;-141.50;100.00;63355.56;5010327;28;20053;-78
2022/03/10 07:44:04;;;;;;;19.85;9.00;;;;;;;-141.50;100.00;63355.56;5009573;28;20359;-77
2022/03/10 07:46:30;;;;;;;22.65;9.40;;;;;;;-141.50;100.00;63355.56;5010388;28;20082;-76
2022/03/10 07:49:00;;;;;;;21.83;9.50;;;;;;;-141.50;100.00;63355.56;5010378;28;20191;-77
2022/03/10 07:51:26;;;;;;;21.77;9.48;;;;;;;-141.50;100.00;63355.56;5007869;28;20464;-77
2022/03/10 07:53:53;;;;;;;21.02;9.52;;;;;;;-141.50;100.00;63355.56;5009970;28;20050;-77
2022/03/10 07:56:19;;;;;;;21.23;9.48;;;;;;;-141.50;100.00;63355.56;5004718;28;20051;-77
2022/03/10 07:58:46;;;;;;;20.15;9.32;;;;;;;-141.50;100.00;63355.56;5009792;28;20054;-77
2022/03/10 08:01:12;;;;;;;20.77;9.98;;;;;;;-141.50;100.00;63355.56;5010664;28;20046;-77
2022/03/10 08:03:40;;;;;;;20.67;10.05;;;;;;;-141.50;100.00;63355.56;5009576;28;20080;-77
2022/03/10 08:06:07;;;;;;;22.60;9.55;;;;;;;-141.50;100.00;63355.56;5009020;28;20060;-77
2022/03/10 08:08:35;;;;;;;24.10;10.48;;;;;;;-141.50;100.00;63355.56;5009397;28;20095;-77
2022/03/10 08:11:03;;;;;;;24.83;11.40;;;;;;;-141.50;100.00;63355.56;5010033;28;20049;-78
2022/03/10 08:13:31;;;;;;;28.30;11.45;;;;;;;-141.50;100.00;63355.56;5009748;28;20517;-78
2022/03/10 08:15:58;;;;;;;24.75;10.85;;;;;;;-141.50;100.00;63355.56;5010119;28;20136;-78
2022/03/10 08:18:26;;;;;;;24.70;10.93;;;;;;;-141.50;100.00;63355.56;5009359;28;20050;-77
2022/03/10 08:20:54;;;;;;;26.23;10.38;;;;;;;-141.50;100.00;63355.56;5006647;28;20129;-77
2022/03/10 08:23:20;;;;;;;21.83;10.45;;;;;;;-141.50;100.00;63355.56;5010303;28;20103;-77
2022/03/10 08:25:47;;;;;;;24.88;10.35;;;;;;;-141.50;100.00;63355.56;5008986;28;20057;-78
2022/03/10 08:28:14;;;;;;;23.65;10.60;;;;;;;-141.50;100.00;63355.56;5008231;28;20137;-78
2022/03/10 08:30:40;;;;;;;21.27;10.13;;;;;;;-141.50;100.00;63355.56;5009309;28;20049;-78
2022/03/10 08:33:07;;;;;;;21.48;10.40;;;;;;;-141.50;100.00;63355.56;5009736;28;20061;-77
2022/03/10 08:35:34;;;;;;;19.92;9.65;;;;;;;-141.50;100.00;63355.56;5008666;28;20181;-77
2022/03/10 08:38:00;;;;;;;23.35;9.73;;;;;;;-141.50;100.00;63355.56;5008856;28;20050;-77
2022/03/10 08:40:28;;;;;;;25.23;10.05;;;;;;;-141.50;100.00;63355.56;5007834;28;20112;-78
2022/03/10 08:42:55;;;;;;;20.42;9.35;;;;;;;-141.50;100.00;63355.56;5008321;28;20096;-77
2022/03/10 08:45:26;;;;;;;20.33;9.85;;;;;;;-141.50;100.00;63355.56;5009758;28;20089;-77
2022/03/10 08:47:54;;;;;;;21.00;9.88;;;;;;;-141.50;100.00;63355.56;5007134;28;20076;-78
2022/03/10 08:50:24;;;;;;;24.83;9.63;;;;;;;-141.50;100.00;63355.56;5006992;28;20057;-77
2022/03/10 08:52:51;;;;;;;20.75;9.20;;;;;;;-141.50;100.00;63355.56;5008973;28;20081;-78
2022/03/10 08:55:20;;;;;;;25.00;9.18;;;;;;;-141.50;100.00;63355.56;5007767;28;20050;-78
2022/03/10 08:57:47;;;;;;;18.20;9.18;;;;;;;-141.50;100.00;63355.56;5007953;28;20049;-77
2022/03/10 09:00:15;;;;;;;19.75;8.25;;;;;;;-141.50;100.00;63355.56;5009165;28;20049;-78
2022/03/10 09:02:42;;;;;;;21.35;8.57;;;;;;;-141.50;100.00;63355.56;5013093;28;20134;-78
2022/03/10 09:05:10;;;;;;;18.63;8.45;;;;;;;-141.50;100.00;63355.56;5011133;28;20105;-78
2022/03/10 09:07:37;;;;;;;20.52;7.93;;;;;;;-141.50;100.00;63355.56;5010039;28;20041;-77
2022/03/10 09:10:09;;;;;;;16.45;7.40;;;;;;;-141.50;100.00;63355.56;5008862;28;20045;-78
2022/03/10 09:12:35;;;;;;;15.95;7.57;;;;;;;-141.50;100.00;63355.56;5010745;28;20084;-78
2022/03/10 09:15:02;;;;;;;17.50;7.70;;;;;;;-141.50;100.00;63355.56;5012289;28;20057;-79
2022/03/10 09:17:28;;;;;;;14.57;7.32;;;;;;;-141.50;100.00;63355.56;5012987;28;20051;-78
2022/03/10 09:19:55;;;;;;;18.83;7.43;;;;;;;-141.50;100.00;63355.56;5013877;28;20045;-78
2022/03/10 09:22:23;;;;;;;16.20;7.25;;;;;;;-141.50;100.00;63355.56;5014129;28;20050;-78
2022/03/10 09:24:50;;;;;;;14.18;6.82;;;;;;;-141.50;100.00;63355.56;4989941;28;20054;-78
2022/03/10 09:27:16;;;;;;;16.77;6.85;;;;;;;-141.50;100.00;63355.56;5008379;28;20221;-78
2022/03/10 09:29:43;;;;;;;15.70;6.75;;;;;;;-141.50;100.00;63355.56;4993312;28;20189;-78
2022/03/10 09:32:11;;;;;;;14.57;6.63;;;;;;;-141.50;100.00;63355.56;4997452;28;20054;-78
2022/03/10 09:34:37;;;;;;;12.98;6.25;;;;;;;-141.50;100.00;63355.56;4998154;28;20549;-78
2022/03/10 09:37:06;;;;;;;12.35;6.53;;;;;;;-141.50;100.00;63355.56;4996634;28;20089;-78
2022/03/10 09:39:33;;;;;;;12.90;6.47;;;;;;;-141.50;100.00;63355.56;4992904;28;20109;-78
2022/03/10 09:42:03;;;;;;;12.75;5.90;;;;;;;-141.50;100.00;63355.56;5003303;28;20093;-78
2022/03/10 09:44:32;;;;;;;13.23;5.90;;;;;;;-141.50;100.00;63355.56;5015340;28;20077;-77
2022/03/10 09:47:03;;;;;;;16.05;6.22;;;;;;;-141.50;100.00;63355.56;5015749;28;20461;-77
2022/03/10 09:49:33;;;;;;;11.23;5.22;;;;;;;-141.50;100.00;63355.56;5017700;28;20516;-77
2022/03/10 09:52:00;;;;;;;15.07;6.50;;;;;;;-141.50;100.00;63355.56;5019491;28;20049;-78
2022/03/10 09:54:27;;;;;;;13.15;5.22;;;;;;;-141.50;100.00;63355.56;5014447;28;20500;-77
2022/03/10 09:56:55;;;;;;;11.85;5.43;;;;;;;-141.50;100.00;63355.56;5017128;28;20049;-78
2022/03/10 09:59:22;;;;;;;12.13;5.70;;;;;;;-141.50;100.00;63355.56;5013706;28;20054;-77
2022/03/10 10:01:49;;;;;;;15.85;6.15;;;;;;;-141.50;100.00;63355.56;5012764;28;20107;-78
2022/03/10 10:04:19;;;;;;;10.68;5.75;;;;;;;-141.50;100.00;63355.56;5012167;28;20049;-77
2022/03/10 10:07:00;;;;;;;15.55;6.55;;;;;;;-141.50;100.00;63355.56;5011165;28;20096;-77
2022/03/10 10:09:56;;;;;;;12.15;5.93;;;;;;;-141.50;100.00;63355.56;5008962;28;20088;-77
2022/03/10 10:12:30;;;;;;;14.38;6.82;;;;;;;-141.50;100.00;63355.56;4992481;28;20078;-78
2022/03/10 10:15:00;;;;;;;14.75;6.00;;;;;;;-141.50;100.00;63355.56;4991968;28;20399;-78
2022/03/10 10:17:29;;;;;;;15.63;6.28;;;;;;;-141.50;100.00;63355.56;4990615;28;20491;-78
2022/03/10 10:20:15;;;;;;;11.98;6.30;;;;;;;-141.50;100.00;63355.56;4991541;28;20499;-77
2022/03/10 10:22:45;;;;;;;13.27;6.28;;;;;;;-141.50;100.00;63355.56;4992226;28;20105;-78
2022/03/10 10:25:12;;;;;;;19.23;7.13;;;;;;;-141.50;100.00;63355.56;5004852;28;20049;-77
2022/03/10 10:27:38;;;;;;;16.77;7.10;;;;;;;-141.50;100.00;63355.56;5009735;28;20092;-78
2022/03/10 10:30:07;;;;;;;16.27;6.72;;;;;;;-141.50;100.00;63355.56;5014769;28;20057;-78
2022/03/10 10:32:49;;;;;;;13.15;6.00;;;;;;;-141.50;100.00;63355.56;5031824;28;20057;-78
2022/03/10 10:35:21;;;;;;;13.05;6.78;;;;;;;-141.50;100.00;63355.56;5032261;28;20401;-78
2022/03/10 10:37:56;;;;;;;11.00;6.63;;;;;;;-141.50;100.00;63355.56;5030689;28;20062;-78
2022/03/10 10:40:31;;;;;;;15.10;7.20;;;;;;;-141.50;100.00;63355.56;5016410;28;20054;-78
2022/03/10 10:43:02;;;;;;;12.80;6.72;;;;;;;-141.50;100.00;63355.56;5016221;28;20058;-77
2022/03/10 10:45:33;;;;;;;11.15;6.07;;;;;;;-141.50;100.00;63355.56;5021960;28;20047;-77
2022/03/10 10:48:05;;;;;;;13.02;7.18;;;;;;;-141.50;100.00;63355.56;5021377;28;20049;-78
2022/03/10 10:50:34;;;;;;;11.57;6.75;;;;;;;-141.50;100.00;63355.56;5012079;28;20045;-78
2022/03/10 10:53:03;;;;;;;13.00;7.20;;;;;;;-141.50;100.00;63355.56;5013636;28;20058;-78
2022/03/10 10:55:38;;;;;;;15.60;7.63;;;;;;;-141.50;100.00;63355.56;5009319;28;20104;-78
2022/03/10 10:58:10;;;;;;;11.00;6.97;;;;;;;-141.50;100.00;63355.56;5009702;28;20120;-77
2022/03/10 11:00:45;;;;;;;14.07;7.28;;;;;;;-141.50;100.00;63355.56;5009172;28;20046;-78
2022/03/10 11:03:26;;;;;;;;;;;;;;;-141.50;100.00;63355.56;5010129;28;20060;-78
2022/03/10 11:05:54;;;;;;;15.98;7.40;;;;;;;-141.50;100.00;63355.56;5004078;28;19941;-78
2022/03/10 11:08:22;;;;;;;12.65;7.00;;;;;;;-141.50;100.00;63355.56;4996718;28;20042;-75
2022/03/10 11:10:50;;;;;;;10.88;6.93;;;;;;;-141.50;100.00;63355.56;5000384;28;20111;-75
2022/03/10 11:13:21;;;;;;;14.48;7.68;;;;;;;-141.50;100.00;63355.56;5001622;28;20057;-78
2022/03/10 11:15:50;;;;;;;13.25;6.88;;;;;;;-141.50;100.00;63355.56;5006841;28;20410;-77
2022/03/10 11:18:21;;;;;;;12.15;7.28;;;;;;;-141.50;100.00;63355.56;5009903;28;20050;-77